sensor_id;sensor_type;location;lat;lon;timestamp;pressure;altitude;pressure_sealevel;temperature;humidity
6090;BME280;3073;42.660;23.316;2022-08-04T00:00:25;94704.97;;;19.68;100.00
6090;BME280;3073;42.660;23.316;2022-08-04T00:03:00;94707.94;;;19.61;100.00
6090;BME280;3073;42.660;23.316;2022-08-04T00:05:51;94711.09;;;19.44;100.00
6090;BME280;3073;42.660;23.316;2022-08-04T00:08:24;94710.13;;;19.22;100.00
6090;BME280;3073;42.660;23.316;2022-08-04T00:11:08;94701.50;;;19.13;100.00
6090;BME280;3073;42.660;23.316;2022-08-04T00:13:38;94704.03;;;19.31;100.00
6090;BME280;3073;42.660;23.316;2022-08-04T00:16:06;94710.66;;;19.37;100.00
6090;BME280;3073;42.660;23.316;2022-08-04T00:18:38;94702.19;;;19.32;100.00
6090;BME280;3073;42.660;23.316;2022-08-04T00:21:09;94694.94;;;19.34;100.00
6090;BME280;3073;42.660;23.316;2022-08-04T00:23:38;94695.84;;;19.43;100.00
6090;BME280;3073;42.660;23.316;2022-08-04T00:26:06;94693.25;;;19.43;100.00
6090;BME280;3073;42.660;23.316;2022-08-04T00:28:35;94688.28;;;19.46;100.00
6090;BME280;3073;42.660;23.316;2022-08-04T00:31:03;94685.56;;;19.51;100.00
6090;BME280;3073;42.660;23.316;2022-08-04T00:33:31;94685.31;;;19.53;100.00
6090;BME280;3073;42.660;23.316;2022-08-04T00:35:59;94690.84;;;19.46;100.00
6090;BME280;3073;42.660;23.316;2022-08-04T00:38:26;94691.00;;;19.36;100.00
6090;BME280;3073;42.660;23.316;2022-08-04T00:41:07;94691.47;;;19.38;100.00
6090;BME280;3073;42.660;23.316;2022-08-04T00:43:50;94701.16;;;19.33;100.00
6090;BME280;3073;42.660;23.316;2022-08-04T00:46:36;94694.91;;;19.20;100.00
6090;BME280;3073;42.660;23.316;2022-08-04T00:49:27;94698.75;;;19.23;100.00
6090;BME280;3073;42.660;23.316;2022-08-04T00:52:03;94696.16;;;19.23;100.00
6090;BME280;3073;42.660;23.316;2022-08-04T00:54:43;94697.03;;;19.32;100.00
6090;BME280;3073;42.660;23.316;2022-08-04T00:57:27;94702.00;;;19.28;100.00
6090;BME280;3073;42.660;23.316;2022-08-04T01:00:04;94709.19;;;19.18;100.00
6090;BME280;3073;42.660;23.316;2022-08-04T01:02:35;94716.59;;;19.06;100.00
6090;BME280;3073;42.660;23.316;2022-08-04T01:05:05;94704.44;;;18.55;100.00
6090;BME280;3073;42.660;23.316;2022-08-04T01:07:59;94706.97;;;18.60;100.00
6090;BME280;3073;42.660;23.316;2022-08-04T01:10:40;94718.88;;;18.75;100.00
6090;BME280;3073;42.660;23.316;2022-08-04T01:13:33;94711.56;;;18.63;100.00
6090;BME280;3073;42.660;23.316;2022-08-04T01:16:05;94715.13;;;18.67;100.00
6090;BME280;3073;42.660;23.316;2022-08-04T01:18:35;94720.94;;;18.78;100.00
6090;BME280;3073;42.660;23.316;2022-08-04T01:21:35;94719.72;;;18.89;100.00
6090;BME280;3073;42.660;23.316;2022-08-04T01:24:28;94725.84;;;18.93;100.00
6090;BME280;3073;42.660;23.316;2022-08-04T01:27:00;94719.75;;;19.02;100.00
6090;BME280;3073;42.660;23.316;2022-08-04T01:29:34;94723.38;;;19.01;100.00
6090;BME280;3073;42.660;23.316;2022-08-04T01:32:04;94712.72;;;18.89;100.00
6090;BME280;3073;42.660;23.316;2022-08-04T01:34:39;94713.19;;;18.91;100.00
6090;BME280;3073;42.660;23.316;2022-08-04T01:37:10;94707.56;;;18.89;100.00
6090;BME280;3073;42.660;23.316;2022-08-04T01:39:49;94703.06;;;18.39;100.00
6090;BME280;3073;42.660;23.316;2022-08-04T01:42:18;94694.91;;;18.32;100.00
6090;BME280;3073;42.660;23.316;2022-08-04T01:44:52;94698.69;;;18.39;100.00
6090;BME280;3073;42.660;23.316;2022-08-04T01:47:21;94698.41;;;18.41;100.00
6090;BME280;3073;42.660;23.316;2022-08-04T01:49:49;94697.91;;;18.39;100.00
6090;BME280;3073;42.660;23.316;2022-08-04T01:52:17;94705.44;;;18.35;100.00
6090;BME280;3073;42.660;23.316;2022-08-04T01:54:45;94702.59;;;18.37;100.00
6090;BME280;3073;42.660;23.316;2022-08-04T01:57:16;94709.31;;;18.38;100.00
6090;BME280;3073;42.660;23.316;2022-08-04T01:59:45;94708.19;;;18.44;100.00
6090;BME280;3073;42.660;23.316;2022-08-04T02:02:14;94708.53;;;18.37;100.00
6090;BME280;3073;42.660;23.316;2022-08-04T02:04:42;94706.38;;;18.44;100.00
6090;BME280;3073;42.660;23.316;2022-08-04T02:07:27;94703.59;;;18.60;100.00
6090;BME280;3073;42.660;23.316;2022-08-04T02:10:04;94703.13;;;18.58;100.00
6090;BME280;3073;42.660;23.316;2022-08-04T02:12:51;94705.56;;;18.25;100.00
6090;BME280;3073;42.660;23.316;2022-08-04T02:15:25;94704.19;;;18.14;100.00
6090;BME280;3073;42.660;23.316;2022-08-04T02:17:59;94702.66;;;18.13;100.00
6090;BME280;3073;42.660;23.316;2022-08-04T02:20:31;94705.16;;;18.18;100.00
6090;BME280;3073;42.660;23.316;2022-08-04T02:23:02;94704.81;;;18.25;100.00
6090;BME280;3073;42.660;23.316;2022-08-04T02:25:36;94698.00;;;18.34;100.00
6090;BME280;3073;42.660;23.316;2022-08-04T02:28:16;94693.03;;;18.37;100.00
6090;BME280;3073;42.660;23.316;2022-08-04T02:30:50;94688.66;;;18.38;100.00
6090;BME280;3073;42.660;23.316;2022-08-04T02:33:23;94687.09;;;18.37;100.00
6090;BME280;3073;42.660;23.316;2022-08-04T02:35:57;94695.63;;;18.37;100.00
6090;BME280;3073;42.660;23.316;2022-08-04T02:38:32;94691.72;;;18.40;100.00
6090;BME280;3073;42.660;23.316;2022-08-04T02:41:04;94698.41;;;18.41;100.00
6090;BME280;3073;42.660;23.316;2022-08-04T02:43:35;94690.59;;;18.46;100.00
6090;BME280;3073;42.660;23.316;2022-08-04T02:46:04;94701.09;;;18.55;100.00
6090;BME280;3073;42.660;23.316;2022-08-04T02:48:33;94701.38;;;18.53;100.00
6090;BME280;3073;42.660;23.316;2022-08-04T02:51:02;94704.63;;;18.59;100.00
6090;BME280;3073;42.660;23.316;2022-08-04T02:53:29;94696.53;;;18.46;100.00
6090;BME280;3073;42.660;23.316;2022-08-04T02:55:59;94700.63;;;18.29;100.00
6090;BME280;3073;42.660;23.316;2022-08-04T02:58:30;94710.16;;;17.67;100.00
6090;BME280;3073;42.660;23.316;2022-08-04T03:01:00;94714.03;;;17.36;100.00
6090;BME280;3073;42.660;23.316;2022-08-04T03:03:36;94711.69;;;17.11;100.00
6090;BME280;3073;42.660;23.316;2022-08-04T03:06:33;94708.38;;;17.05;100.00
6090;BME280;3073;42.660;23.316;2022-08-04T03:12:34;94706.03;;;17.37;100.00
6090;BME280;3073;42.660;23.316;2022-08-04T03:18:44;94706.56;;;17.63;100.00
6090;BME280;3073;42.660;23.316;2022-08-04T03:25:13;94701.47;;;17.82;100.00
6090;BME280;3073;42.660;23.316;2022-08-04T03:28:26;94705.22;;;17.94;100.00
6090;BME280;3073;42.660;23.316;2022-08-04T03:31:09;94707.28;;;17.92;100.00
6090;BME280;3073;42.660;23.316;2022-08-04T03:33:55;94705.72;;;17.91;100.00
6090;BME280;3073;42.660;23.316;2022-08-04T03:36:48;94703.78;;;17.83;100.00
6090;BME280;3073;42.660;23.316;2022-08-04T03:39:43;94706.72;;;17.95;100.00
6090;BME280;3073;42.660;23.316;2022-08-04T03:42:38;94700.41;;;17.59;100.00
6090;BME280;3073;42.660;23.316;2022-08-04T03:45:30;94703.06;;;17.49;100.00
6090;BME280;3073;42.660;23.316;2022-08-04T03:48:08;94697.34;;;17.57;100.00
6090;BME280;3073;42.660;23.316;2022-08-04T03:51:05;94703.94;;;17.68;100.00
6090;BME280;3073;42.660;23.316;2022-08-04T03:54:10;94700.88;;;17.90;100.00
6090;BME280;3073;42.660;23.316;2022-08-04T03:56:55;94702.78;;;18.03;100.00
6090;BME280;3073;42.660;23.316;2022-08-04T03:59:45;94708.06;;;17.93;100.00
6090;BME280;3073;42.660;23.316;2022-08-04T04:11:44;94710.41;;;18.13;100.00
6090;BME280;3073;42.660;23.316;2022-08-04T04:14:53;94710.31;;;18.18;100.00
6090;BME280;3073;42.660;23.316;2022-08-04T04:20:46;94726.94;;;18.55;100.00
6090;BME280;3073;42.660;23.316;2022-08-04T04:23:38;94725.41;;;18.48;100.00
6090;BME280;3073;42.660;23.316;2022-08-04T04:29:42;94725.88;;;18.74;100.00
6090;BME280;3073;42.660;23.316;2022-08-04T04:32:21;94725.53;;;18.62;100.00
6090;BME280;3073;42.660;23.316;2022-08-04T04:35:09;94725.06;;;18.60;100.00
6090;BME280;3073;42.660;23.316;2022-08-04T04:37:56;94721.63;;;18.65;100.00
6090;BME280;3073;42.660;23.316;2022-08-04T04:40:36;94732.38;;;18.53;100.00
6090;BME280;3073;42.660;23.316;2022-08-04T04:43:32;94737.44;;;18.39;100.00
6090;BME280;3073;42.660;23.316;2022-08-04T04:46:09;94729.34;;;18.46;100.00
6090;BME280;3073;42.660;23.316;2022-08-04T04:48:47;94730.00;;;18.75;100.00
6090;BME280;3073;42.660;23.316;2022-08-04T04:51:21;94738.03;;;18.74;100.00
6090;BME280;3073;42.660;23.316;2022-08-04T04:53:53;94733.56;;;18.79;100.00
6090;BME280;3073;42.660;23.316;2022-08-04T04:56:26;94734.25;;;19.03;100.00
6090;BME280;3073;42.660;23.316;2022-08-04T04:58:56;94729.69;;;19.14;100.00
6090;BME280;3073;42.660;23.316;2022-08-04T05:01:55;94730.28;;;19.38;100.00
6090;BME280;3073;42.660;23.316;2022-08-04T05:04:44;94730.81;;;19.40;100.00
6090;BME280;3073;42.660;23.316;2022-08-04T05:07:37;94735.06;;;19.64;100.00
6090;BME280;3073;42.660;23.316;2022-08-04T05:10:24;94734.69;;;19.57;100.00
6090;BME280;3073;42.660;23.316;2022-08-04T05:15:51;94748.31;;;19.89;100.00
6090;BME280;3073;42.660;23.316;2022-08-04T05:18:21;94743.59;;;20.05;100.00
6090;BME280;3073;42.660;23.316;2022-08-04T05:20:52;94748.72;;;20.10;100.00
6090;BME280;3073;42.660;23.316;2022-08-04T05:23:24;94751.59;;;20.36;100.00
6090;BME280;3073;42.660;23.316;2022-08-04T05:25:55;94745.53;;;20.54;100.00
6090;BME280;3073;42.660;23.316;2022-08-04T05:28:25;94744.50;;;20.41;100.00
6090;BME280;3073;42.660;23.316;2022-08-04T05:30:58;94747.91;;;20.64;100.00
6090;BME280;3073;42.660;23.316;2022-08-04T05:33:30;94748.25;;;20.71;100.00
6090;BME280;3073;42.660;23.316;2022-08-04T05:35:59;94748.03;;;20.81;100.00
6090;BME280;3073;42.660;23.316;2022-08-04T05:38:32;94750.66;;;21.03;100.00
6090;BME280;3073;42.660;23.316;2022-08-04T05:41:01;94755.94;;;20.98;100.00
6090;BME280;3073;42.660;23.316;2022-08-04T05:43:29;94757.53;;;20.36;100.00
6090;BME280;3073;42.660;23.316;2022-08-04T05:45:58;94755.19;;;20.62;100.00
6090;BME280;3073;42.660;23.316;2022-08-04T05:48:27;94749.59;;;20.69;100.00
6090;BME280;3073;42.660;23.316;2022-08-04T05:50:55;94750.19;;;21.24;100.00
6090;BME280;3073;42.660;23.316;2022-08-04T05:53:24;94748.44;;;21.94;100.00
6090;BME280;3073;42.660;23.316;2022-08-04T05:55:51;94745.84;;;22.51;100.00
6090;BME280;3073;42.660;23.316;2022-08-04T05:58:18;94751.19;;;23.32;100.00
6090;BME280;3073;42.660;23.316;2022-08-04T06:00:46;94752.09;;;23.99;100.00
6090;BME280;3073;42.660;23.316;2022-08-04T06:03:18;94761.47;;;24.59;100.00
6090;BME280;3073;42.660;23.316;2022-08-04T06:05:46;94759.00;;;25.57;100.00
6090;BME280;3073;42.660;23.316;2022-08-04T06:08:13;94760.44;;;25.79;100.00
6090;BME280;3073;42.660;23.316;2022-08-04T06:10:42;94763.16;;;25.38;100.00
6090;BME280;3073;42.660;23.316;2022-08-04T06:13:12;94768.44;;;24.96;100.00
6090;BME280;3073;42.660;23.316;2022-08-04T06:15:40;94764.47;;;24.70;100.00
6090;BME280;3073;42.660;23.316;2022-08-04T06:18:11;94767.09;;;25.11;100.00
6090;BME280;3073;42.660;23.316;2022-08-04T06:20:42;94767.94;;;24.53;100.00
6090;BME280;3073;42.660;23.316;2022-08-04T06:23:13;94767.28;;;23.97;100.00
6090;BME280;3073;42.660;23.316;2022-08-04T06:25:45;94758.25;;;23.05;100.00
6090;BME280;3073;42.660;23.316;2022-08-04T06:28:14;94763.78;;;22.04;100.00
6090;BME280;3073;42.660;23.316;2022-08-04T06:30:42;94757.78;;;21.73;100.00
6090;BME280;3073;42.660;23.316;2022-08-04T06:33:13;94765.59;;;21.73;100.00
6090;BME280;3073;42.660;23.316;2022-08-04T06:35:53;94761.44;;;21.94;100.00
6090;BME280;3073;42.660;23.316;2022-08-04T06:38:22;94763.56;;;22.40;100.00
6090;BME280;3073;42.660;23.316;2022-08-04T06:40:49;94767.78;;;23.01;100.00
6090;BME280;3073;42.660;23.316;2022-08-04T06:43:17;94769.75;;;23.47;100.00
6090;BME280;3073;42.660;23.316;2022-08-04T06:45:45;94773.13;;;23.48;100.00
6090;BME280;3073;42.660;23.316;2022-08-04T06:48:15;94777.59;;;23.85;100.00
6090;BME280;3073;42.660;23.316;2022-08-04T06:50:43;94772.75;;;24.22;100.00
6090;BME280;3073;42.660;23.316;2022-08-04T06:53:14;94774.94;;;24.90;100.00
6090;BME280;3073;42.660;23.316;2022-08-04T06:55:42;94775.50;;;25.17;100.00
6090;BME280;3073;42.660;23.316;2022-08-04T06:58:11;94771.38;;;25.48;100.00
6090;BME280;3073;42.660;23.316;2022-08-04T07:00:39;94778.19;;;25.08;100.00
6090;BME280;3073;42.660;23.316;2022-08-04T07:03:07;94776.22;;;24.76;100.00
6090;BME280;3073;42.660;23.316;2022-08-04T07:05:34;94771.13;;;24.38;100.00
6090;BME280;3073;42.660;23.316;2022-08-04T07:08:02;94775.91;;;23.89;100.00
6090;BME280;3073;42.660;23.316;2022-08-04T07:10:34;94772.06;;;23.40;100.00
6090;BME280;3073;42.660;23.316;2022-08-04T07:13:01;94777.34;;;23.78;100.00
6090;BME280;3073;42.660;23.316;2022-08-04T07:15:28;94769.72;;;23.56;100.00
6090;BME280;3073;42.660;23.316;2022-08-04T07:17:56;94771.09;;;23.53;100.00
6090;BME280;3073;42.660;23.316;2022-08-04T07:20:24;94766.38;;;23.93;100.00
6090;BME280;3073;42.660;23.316;2022-08-04T07:22:52;94768.81;;;23.98;100.00
6090;BME280;3073;42.660;23.316;2022-08-04T07:25:19;94770.81;;;23.93;100.00
6090;BME280;3073;42.660;23.316;2022-08-04T07:27:47;94763.69;;;24.69;100.00
6090;BME280;3073;42.660;23.316;2022-08-04T07:30:16;94759.66;;;25.67;100.00
6090;BME280;3073;42.660;23.316;2022-08-04T07:32:43;94755.47;;;25.98;100.00
6090;BME280;3073;42.660;23.316;2022-08-04T07:35:12;94758.53;;;26.37;100.00
6090;BME280;3073;42.660;23.316;2022-08-04T07:37:39;94752.78;;;26.95;100.00
6090;BME280;3073;42.660;23.316;2022-08-04T07:40:07;94757.53;;;27.05;100.00
6090;BME280;3073;42.660;23.316;2022-08-04T07:42:34;94755.41;;;27.51;98.73
6090;BME280;3073;42.660;23.316;2022-08-04T07:45:04;94755.59;;;27.58;96.96
6090;BME280;3073;42.660;23.316;2022-08-04T07:47:32;94757.91;;;28.22;94.71
6090;BME280;3073;42.660;23.316;2022-08-04T07:49:59;94763.50;;;29.09;87.49
6090;BME280;3073;42.660;23.316;2022-08-04T07:52:26;94762.75;;;30.38;80.63
6090;BME280;3073;42.660;23.316;2022-08-04T07:54:53;94766.81;;;30.09;73.74
6090;BME280;3073;42.660;23.316;2022-08-04T07:57:21;94768.91;;;29.17;78.87
6090;BME280;3073;42.660;23.316;2022-08-04T07:59:49;94765.88;;;28.10;87.00
6090;BME280;3073;42.660;23.316;2022-08-04T08:02:19;94762.44;;;28.41;89.58
6090;BME280;3073;42.660;23.316;2022-08-04T08:04:47;94756.47;;;28.09;88.72
6090;BME280;3073;42.660;23.316;2022-08-04T08:07:14;94754.34;;;28.15;87.93
6090;BME280;3073;42.660;23.316;2022-08-04T08:09:44;94753.34;;;28.54;87.37
6090;BME280;3073;42.660;23.316;2022-08-04T08:12:11;94763.72;;;28.82;83.83
6090;BME280;3073;42.660;23.316;2022-08-04T08:14:38;94751.34;;;28.47;84.44
6090;BME280;3073;42.660;23.316;2022-08-04T08:17:06;94755.09;;;28.81;84.16
6090;BME280;3073;42.660;23.316;2022-08-04T08:19:35;94754.59;;;29.75;82.55
6090;BME280;3073;42.660;23.316;2022-08-04T08:22:03;94760.13;;;28.90;82.08
6090;BME280;3073;42.660;23.316;2022-08-04T08:24:34;94760.72;;;29.60;79.22
6090;BME280;3073;42.660;23.316;2022-08-04T08:27:02;94758.72;;;30.71;73.28
6090;BME280;3073;42.660;23.316;2022-08-04T08:29:33;94761.25;;;30.93;68.42
6090;BME280;3073;42.660;23.316;2022-08-04T08:32:01;94758.88;;;29.83;69.05
6090;BME280;3073;42.660;23.316;2022-08-04T08:34:30;94765.84;;;29.53;67.19
6090;BME280;3073;42.660;23.316;2022-08-04T08:37:03;94759.84;;;29.94;63.62
6090;BME280;3073;42.660;23.316;2022-08-04T08:39:35;94759.69;;;30.59;58.77
6090;BME280;3073;42.660;23.316;2022-08-04T08:45:36;94761.03;;;31.72;54.67
6090;BME280;3073;42.660;23.316;2022-08-04T08:48:28;94752.38;;;32.23;54.71
6090;BME280;3073;42.660;23.316;2022-08-04T08:51:22;94759.03;;;32.57;56.17
6090;BME280;3073;42.660;23.316;2022-08-04T08:56:58;94758.91;;;32.39;59.48
6090;BME280;3073;42.660;23.316;2022-08-04T08:59:50;94755.91;;;31.93;60.53
6090;BME280;3073;42.660;23.316;2022-08-04T09:02:43;94749.47;;;31.87;60.92
6090;BME280;3073;42.660;23.316;2022-08-04T09:05:23;94754.53;;;31.66;57.71
6090;BME280;3073;42.660;23.316;2022-08-04T09:08:06;94752.81;;;31.44;57.18
6090;BME280;3073;42.660;23.316;2022-08-04T09:10:41;94750.25;;;31.91;57.61
6090;BME280;3073;42.660;23.316;2022-08-04T09:13:15;94749.31;;;32.13;53.32
6090;BME280;3073;42.660;23.316;2022-08-04T09:15:48;94745.06;;;32.02;50.71
6090;BME280;3073;42.660;23.316;2022-08-04T09:18:24;94742.50;;;32.09;51.29
6090;BME280;3073;42.660;23.316;2022-08-04T09:20:55;94749.72;;;31.35;50.66
6090;BME280;3073;42.660;23.316;2022-08-04T09:23:40;94740.03;;;30.83;52.13
6090;BME280;3073;42.660;23.316;2022-08-04T09:26:18;94731.91;;;32.05;52.88
6090;BME280;3073;42.660;23.316;2022-08-04T09:28:50;94735.28;;;31.58;52.91
6090;BME280;3073;42.660;23.316;2022-08-04T09:31:22;94736.53;;;31.01;52.01
6090;BME280;3073;42.660;23.316;2022-08-04T09:33:57;94733.06;;;32.08;50.55
6090;BME280;3073;42.660;23.316;2022-08-04T09:36:31;94727.28;;;32.53;51.67
6090;BME280;3073;42.660;23.316;2022-08-04T09:39:05;94740.56;;;33.57;48.71
6090;BME280;3073;42.660;23.316;2022-08-04T09:41:45;94734.97;;;34.23;45.01
6090;BME280;3073;42.660;23.316;2022-08-04T09:44:36;94728.47;;;34.62;44.23
6090;BME280;3073;42.660;23.316;2022-08-04T09:47:11;94733.75;;;33.60;44.63
6090;BME280;3073;42.660;23.316;2022-08-04T09:49:43;94736.22;;;32.96;46.97
6090;BME280;3073;42.660;23.316;2022-08-04T09:52:24;94727.38;;;33.96;45.74
6090;BME280;3073;42.660;23.316;2022-08-04T09:55:03;94731.66;;;35.20;42.33
6090;BME280;3073;42.660;23.316;2022-08-04T09:57:42;94733.13;;;35.35;40.22
6090;BME280;3073;42.660;23.316;2022-08-04T10:00:12;94735.81;;;36.34;39.92
6090;BME280;3073;42.660;23.316;2022-08-04T10:02:43;94733.06;;;35.97;38.75
6090;BME280;3073;42.660;23.316;2022-08-04T10:05:15;94730.66;;;35.69;37.20
6090;BME280;3073;42.660;23.316;2022-08-04T10:08:01;94719.13;;;36.30;35.59
6090;BME280;3073;42.660;23.316;2022-08-04T10:10:35;94729.06;;;36.97;34.60
6090;BME280;3073;42.660;23.316;2022-08-04T10:13:17;94728.25;;;37.34;33.98
6090;BME280;3073;42.660;23.316;2022-08-04T10:15:59;94718.31;;;36.37;31.86
6090;BME280;3073;42.660;23.316;2022-08-04T10:18:49;94721.22;;;36.53;32.56
6090;BME280;3073;42.660;23.316;2022-08-04T10:21:27;94718.03;;;35.80;33.53
6090;BME280;3073;42.660;23.316;2022-08-04T10:24:13;94702.78;;;33.85;35.93
6090;BME280;3073;42.660;23.316;2022-08-04T10:26:45;94709.53;;;34.50;37.24
6090;BME280;3073;42.660;23.316;2022-08-04T10:29:21;94708.66;;;34.95;37.87
6090;BME280;3073;42.660;23.316;2022-08-04T10:31:56;94712.97;;;34.40;35.81
6090;BME280;3073;42.660;23.316;2022-08-04T10:34:26;94708.84;;;33.75;33.98
6090;BME280;3073;42.660;23.316;2022-08-04T10:36:59;94702.34;;;34.40;34.48
6090;BME280;3073;42.660;23.316;2022-08-04T10:39:38;94704.53;;;35.53;34.19
6090;BME280;3073;42.660;23.316;2022-08-04T10:42:15;94702.63;;;35.57;31.70
6090;BME280;3073;42.660;23.316;2022-08-04T10:45:07;94704.75;;;36.65;30.91
6090;BME280;3073;42.660;23.316;2022-08-04T10:47:51;94697.69;;;36.48;28.71
6090;BME280;3073;42.660;23.316;2022-08-04T10:50:22;94701.94;;;36.79;28.16
6090;BME280;3073;42.660;23.316;2022-08-04T10:52:54;94708.00;;;36.80;30.11
6090;BME280;3073;42.660;23.316;2022-08-04T10:55:29;94709.81;;;37.47;27.50
6090;BME280;3073;42.660;23.316;2022-08-04T10:58:00;94701.25;;;37.86;28.13
6090;BME280;3073;42.660;23.316;2022-08-04T11:00:30;94691.22;;;38.40;25.82
6090;BME280;3073;42.660;23.316;2022-08-04T11:03:05;94691.34;;;37.86;27.74
6090;BME280;3073;42.660;23.316;2022-08-04T11:05:37;94692.28;;;37.76;28.71
6090;BME280;3073;42.660;23.316;2022-08-04T11:08:10;94689.84;;;38.51;27.41
6090;BME280;3073;42.660;23.316;2022-08-04T11:10:42;94675.59;;;38.97;26.07
6090;BME280;3073;42.660;23.316;2022-08-04T11:13:15;94683.97;;;38.17;26.99
6090;BME280;3073;42.660;23.316;2022-08-04T11:15:50;94678.84;;;38.89;27.45
6090;BME280;3073;42.660;23.316;2022-08-04T11:18:24;94669.72;;;38.47;28.87
6090;BME280;3073;42.660;23.316;2022-08-04T11:20:56;94669.63;;;39.45;28.07
6090;BME280;3073;42.660;23.316;2022-08-04T11:23:32;94667.41;;;38.69;27.27
6090;BME280;3073;42.660;23.316;2022-08-04T11:26:05;94669.56;;;38.14;27.47
6090;BME280;3073;42.660;23.316;2022-08-04T11:28:45;94662.06;;;36.42;28.90
6090;BME280;3073;42.660;23.316;2022-08-04T11:31:20;94667.38;;;36.01;30.21
6090;BME280;3073;42.660;23.316;2022-08-04T11:33:53;94670.00;;;35.60;30.18
6090;BME280;3073;42.660;23.316;2022-08-04T11:36:30;94654.56;;;34.75;33.27
6090;BME280;3073;42.660;23.316;2022-08-04T11:39:05;94656.53;;;34.43;33.70
6090;BME280;3073;42.660;23.316;2022-08-04T11:41:52;94650.59;;;33.64;33.86
6090;BME280;3073;42.660;23.316;2022-08-04T11:44:27;94652.63;;;32.67;35.32
6090;BME280;3073;42.660;23.316;2022-08-04T11:47:00;94654.97;;;32.93;34.71
6090;BME280;3073;42.660;23.316;2022-08-04T11:49:34;94653.59;;;33.42;35.65
6090;BME280;3073;42.660;23.316;2022-08-04T11:52:06;94650.53;;;34.03;34.10
6090;BME280;3073;42.660;23.316;2022-08-04T11:54:36;94657.50;;;35.53;33.40
6090;BME280;3073;42.660;23.316;2022-08-04T11:57:04;94659.19;;;36.26;32.08
6090;BME280;3073;42.660;23.316;2022-08-04T11:59:32;94657.84;;;37.08;31.33
6090;BME280;3073;42.660;23.316;2022-08-04T12:02:23;94656.34;;;37.07;30.05
6090;BME280;3073;42.660;23.316;2022-08-04T12:04:56;94645.09;;;36.29;31.22
6090;BME280;3073;42.660;23.316;2022-08-04T12:07:33;94645.97;;;36.56;32.14
6090;BME280;3073;42.660;23.316;2022-08-04T12:10:14;94631.00;;;35.46;32.81
6090;BME280;3073;42.660;23.316;2022-08-04T12:12:49;94651.03;;;34.96;34.95
6090;BME280;3073;42.660;23.316;2022-08-04T12:15:22;94642.88;;;34.55;35.70
6090;BME280;3073;42.660;23.316;2022-08-04T12:18:09;94645.97;;;34.36;34.54
6090;BME280;3073;42.660;23.316;2022-08-04T12:20:43;94652.69;;;34.58;34.18
6090;BME280;3073;42.660;23.316;2022-08-04T12:23:18;94646.06;;;35.05;33.55
6090;BME280;3073;42.660;23.316;2022-08-04T12:25:47;94646.88;;;34.95;34.52
6090;BME280;3073;42.660;23.316;2022-08-04T12:28:21;94645.91;;;34.43;34.12
6090;BME280;3073;42.660;23.316;2022-08-04T12:30:56;94640.00;;;33.64;33.84
6090;BME280;3073;42.660;23.316;2022-08-04T12:33:32;94645.28;;;33.86;34.49
6090;BME280;3073;42.660;23.316;2022-08-04T12:36:09;94644.16;;;33.69;35.76
6090;BME280;3073;42.660;23.316;2022-08-04T12:38:43;94637.31;;;33.47;35.39
6090;BME280;3073;42.660;23.316;2022-08-04T12:41:13;94635.44;;;33.44;35.58
6090;BME280;3073;42.660;23.316;2022-08-04T12:43:41;94638.34;;;32.93;35.53
6090;BME280;3073;42.660;23.316;2022-08-04T12:46:10;94638.78;;;33.09;35.97
6090;BME280;3073;42.660;23.316;2022-08-04T12:48:45;94631.50;;;32.71;35.14
6090;BME280;3073;42.660;23.316;2022-08-04T12:51:12;94633.34;;;32.59;36.08
6090;BME280;3073;42.660;23.316;2022-08-04T12:53:42;94634.50;;;32.62;36.90
6090;BME280;3073;42.660;23.316;2022-08-04T12:56:10;94636.78;;;32.67;36.86
6090;BME280;3073;42.660;23.316;2022-08-04T12:58:39;94629.97;;;32.59;37.05
6090;BME280;3073;42.660;23.316;2022-08-04T13:01:10;94634.50;;;32.73;36.24
6090;BME280;3073;42.660;23.316;2022-08-04T13:03:42;94628.75;;;32.53;35.99
6090;BME280;3073;42.660;23.316;2022-08-04T13:06:11;94628.63;;;32.21;35.63
6090;BME280;3073;42.660;23.316;2022-08-04T13:08:41;94629.38;;;32.22;36.71
6090;BME280;3073;42.660;23.316;2022-08-04T13:11:10;94625.53;;;32.91;37.31
6090;BME280;3073;42.660;23.316;2022-08-04T13:13:38;94622.94;;;33.90;35.48
6090;BME280;3073;42.660;23.316;2022-08-04T13:16:07;94621.41;;;34.21;33.52
6090;BME280;3073;42.660;23.316;2022-08-04T13:18:37;94625.88;;;35.25;31.94
6090;BME280;3073;42.660;23.316;2022-08-04T13:21:14;94622.13;;;35.67;31.58
6090;BME280;3073;42.660;23.316;2022-08-04T13:23:42;94622.47;;;35.21;30.13
6090;BME280;3073;42.660;23.316;2022-08-04T13:26:11;94622.59;;;34.96;30.40
6090;BME280;3073;42.660;23.316;2022-08-04T13:28:41;94622.50;;;35.69;30.49
6090;BME280;3073;42.660;23.316;2022-08-04T13:31:12;94621.28;;;35.33;29.03
6090;BME280;3073;42.660;23.316;2022-08-04T13:33:41;94618.38;;;35.64;29.44
6090;BME280;3073;42.660;23.316;2022-08-04T13:36:11;94604.22;;;35.78;28.99
6090;BME280;3073;42.660;23.316;2022-08-04T13:38:48;94606.03;;;36.26;29.23
6090;BME280;3073;42.660;23.316;2022-08-04T13:41:16;94610.00;;;36.07;29.84
6090;BME280;3073;42.660;23.316;2022-08-04T13:43:46;94603.63;;;36.35;29.73
6090;BME280;3073;42.660;23.316;2022-08-04T13:46:18;94597.19;;;35.98;29.66
6090;BME280;3073;42.660;23.316;2022-08-04T13:48:45;94595.25;;;35.58;30.03
6090;BME280;3073;42.660;23.316;2022-08-04T13:51:17;94597.56;;;35.56;30.80
6090;BME280;3073;42.660;23.316;2022-08-04T13:53:44;94588.44;;;34.33;31.60
6090;BME280;3073;42.660;23.316;2022-08-04T13:56:21;94593.44;;;33.88;32.68
6090;BME280;3073;42.660;23.316;2022-08-04T13:58:53;94597.19;;;34.05;32.05
6090;BME280;3073;42.660;23.316;2022-08-04T14:01:22;94594.22;;;34.90;30.89
6090;BME280;3073;42.660;23.316;2022-08-04T14:03:56;94596.75;;;35.66;30.08
6090;BME280;3073;42.660;23.316;2022-08-04T14:06:28;94581.28;;;35.02;29.70
6090;BME280;3073;42.660;23.316;2022-08-04T14:08:58;94585.78;;;35.05;29.19
6090;BME280;3073;42.660;23.316;2022-08-04T14:11:33;94587.19;;;34.55;29.45
6090;BME280;3073;42.660;23.316;2022-08-04T14:14:12;94575.31;;;33.76;30.90
6090;BME280;3073;42.660;23.316;2022-08-04T14:16:53;94579.50;;;33.49;31.66
6090;BME280;3073;42.660;23.316;2022-08-04T14:19:21;94570.78;;;33.55;31.98